Time;durP1;ratioP1;P1;durP2;ratioP2;P2;SDS_P1;SDS_P2;PMS_P1;PMS_P2;Temp;Humidity;BMP_temperature;BMP_pressure;BME280_temperature;BME280_humidity;BME280_pressure;Samples;Min_cycle;Max_cycle;Signal;HPM_P1;HPM_P2
2023/04/24 00:00:31;;;;;;;5.22;2.67;;;;;;;23.23;38.15;98923.16;4362500;32;33373;-62
2023/04/24 00:02:59;;;;;;;5.07;2.20;;;;;;;23.22;38.14;98924.19;4362378;32;34698;-63
2023/04/24 00:05:27;;;;;;;5.28;2.50;;;;;;;23.21;38.15;98926.09;4348759;32;34275;-63
2023/04/24 00:07:55;;;;;;;4.40;2.20;;;;;;;23.22;38.16;98926.91;4362327;32;33966;-64
2023/04/24 00:10:22;;;;;;;6.47;2.72;;;;;;;23.21;38.18;98922.56;4362419;32;34333;-62
2023/04/24 00:12:50;;;;;;;6.90;2.95;;;;;;;23.21;38.13;98919.84;4362211;32;34500;-63
2023/04/24 00:15:18;;;;;;;5.40;2.87;;;;;;;23.22;38.16;98926.91;4362373;32;34146;-63
2023/04/24 00:17:46;;;;;;;5.65;2.60;;;;;;;23.21;38.22;98917.13;4362292;32;33941;-69
2023/04/24 00:20:14;;;;;;;6.12;2.90;;;;;;;23.21;38.45;98912.50;4362103;32;34004;-62
2023/04/24 00:22:42;;;;;;;7.95;2.70;;;;;;;23.21;38.71;98917.94;4362222;32;34013;-63
2023/04/24 00:25:09;;;;;;;4.50;2.50;;;;;;;23.22;38.81;98916.03;4362200;32;33985;-63
2023/04/24 00:27:38;;;;;;;7.95;2.67;;;;;;;23.20;38.72;98919.00;4362376;32;34109;-63
2023/04/24 00:30:06;;;;;;;4.70;2.67;;;;;;;23.21;38.64;98914.41;4362186;32;34755;-63
2023/04/24 00:32:34;;;;;;;7.30;2.70;;;;;;;23.21;38.52;98917.94;4362073;32;34655;-62
2023/04/24 00:35:02;;;;;;;5.30;2.58;;;;;;;23.21;38.37;98907.06;4361888;32;34152;-63
2023/04/24 00:37:29;;;;;;;6.20;2.70;;;;;;;23.20;38.30;98902.69;4362083;32;34698;-62
2023/04/24 00:39:57;;;;;;;6.03;2.30;;;;;;;23.21;38.28;98903.50;4362297;32;32918;-62
2023/04/24 00:42:25;;;;;;;6.57;2.53;;;;;;;23.21;38.25;98889.91;4362042;32;33761;-62
2023/04/24 00:44:52;;;;;;;5.80;2.60;;;;;;;23.20;38.25;98885.53;4349022;32;34796;-62
2023/04/24 00:47:21;;;;;;;4.95;2.45;;;;;;;23.19;38.25;98892.88;4362106;32;34165;-63
2023/04/24 00:49:49;;;;;;;4.93;2.87;;;;;;;23.19;38.27;98884.72;4349172;32;33042;-63
2023/04/24 00:52:17;;;;;;;8.45;2.90;;;;;;;23.20;38.27;98891.81;4362132;32;33570;-62
2023/04/24 00:54:45;;;;;;;4.20;2.40;;;;;;;23.19;38.28;98884.72;4348651;32;33992;-62
2023/04/24 00:57:13;;;;;;;5.28;2.50;;;;;;;23.19;38.31;98897.50;4348850;32;33338;-62
2023/04/24 00:59:41;;;;;;;7.95;2.80;;;;;;;23.18;38.35;98899.41;4336518;32;34555;-63
2023/04/24 01:02:10;;;;;;;8.02;2.67;;;;;;;23.19;38.34;98892.06;4348431;32;33748;-63
2023/04/24 01:04:38;;;;;;;5.68;2.47;;;;;;;23.19;38.30;98881.16;4362208;32;33982;-62
2023/04/24 01:07:11;;;;;;;5.72;2.78;;;;;;;23.18;38.30;98877.62;4348490;32;34646;-62
2023/04/24 01:09:40;;;;;;;5.47;2.50;;;;;;;23.17;38.29;98884.97;4348976;32;34304;-62
2023/04/24 01:12:08;;;;;;;4.82;2.40;;;;;;;23.17;38.27;98882.25;4361923;32;34807;-62
2023/04/24 01:14:37;;;;;;;5.03;2.33;;;;;;;23.19;38.28;98873.00;4361928;32;33983;-63
2023/04/24 01:17:05;;;;;;;6.07;2.47;;;;;;;23.17;38.30;98879.53;4361700;32;34855;-63
2023/04/24 01:19:33;;;;;;;4.93;2.60;;;;;;;23.16;38.31;98872.41;4361878;32;33432;-62
2023/04/24 01:22:01;;;;;;;5.65;2.97;;;;;;;23.16;38.32;98866.97;4347100;33;33873;-62
2023/04/24 01:24:29;;;;;;;4.12;2.22;;;;;;;23.15;38.34;98853.62;4346805;33;34925;-62
2023/04/24 01:26:56;;;;;;;3.40;2.08;;;;;;;23.16;38.37;98847.09;4333674;33;34128;-62
2023/04/24 01:29:24;;;;;;;5.53;2.17;;;;;;;23.16;38.34;98838.94;4347008;33;33332;-63
2023/04/24 01:31:52;;;;;;;5.07;2.65;;;;;;;23.15;38.35;98832.66;4345607;33;33871;-62
2023/04/24 01:34:19;;;;;;;5.00;2.70;;;;;;;23.15;38.32;98843.56;4346871;33;34930;-62
2023/04/24 01:36:47;;;;;;;4.40;2.40;;;;;;;23.16;38.32;98841.66;4345792;33;33891;-63
2023/04/24 01:39:16;;;;;;;4.75;2.37;;;;;;;23.15;38.30;98832.66;4333536;33;34471;-62
2023/04/24 01:41:43;;;;;;;6.50;2.67;;;;;;;23.16;38.29;98830.78;4346876;33;33873;-63
2023/04/24 01:44:11;;;;;;;5.47;2.67;;;;;;;23.16;38.32;98830.78;4347117;33;34128;-62
2023/04/24 01:46:38;;;;;;;6.68;2.62;;;;;;;23.16;38.27;98825.31;4345740;33;33898;-62
2023/04/24 01:49:06;;;;;;;5.12;2.62;;;;;;;23.15;38.29;98829.94;4333480;33;33674;-62
2023/04/24 01:51:33;;;;;;;5.50;2.17;;;;;;;23.14;38.32;98828.31;4346837;33;33929;-62
2023/04/24 01:54:02;;;;;;;6.50;2.40;;;;;;;23.15;38.34;98826.41;4346925;33;33937;-62
2023/04/24 01:56:30;;;;;;;5.57;2.42;;;;;;;23.15;38.32;98810.09;4333469;33;34099;-62
2023/04/24 01:58:57;;;;;;;5.25;2.03;;;;;;;23.14;38.33;98809.25;4333338;33;33534;-62
2023/04/24 02:01:25;;;;;;;4.70;2.33;;;;;;;23.13;38.36;98802.19;4346872;33;33458;-63
2023/04/24 02:03:53;;;;;;;4.78;2.33;;;;;;;23.13;38.38;98799.47;4346793;33;34825;-62
2023/04/24 02:06:21;;;;;;;5.57;2.62;;;;;;;23.14;38.36;98800.28;4346592;33;34677;-63
2023/04/24 02:08:48;;;;;;;4.25;2.15;;;;;;;23.13;38.33;98799.47;4346747;33;33460;-63
2023/04/24 02:11:16;;;;;;;4.87;2.33;;;;;;;23.13;38.35;98801.34;4346096;33;33684;-63
2023/04/24 02:13:44;;;;;;;5.32;2.30;;;;;;;23.14;38.31;98806.53;4346569;33;34093;-63
2023/04/24 02:16:11;;;;;;;4.57;2.17;;;;;;;23.14;38.33;98800.28;4346771;33;33907;-63
2023/04/24 02:18:39;;;;;;;4.40;2.62;;;;;;;23.13;38.36;98790.47;4333601;33;32645;-63
2023/04/24 02:21:06;;;;;;;4.75;2.60;;;;;;;23.14;38.38;98798.38;4355789;32;33553;-63
2023/04/24 02:23:35;;;;;;;4.90;2.37;;;;;;;23.13;38.40;98794.00;4361480;32;33941;-63
2023/04/24 02:26:02;;;;;;;3.53;2.12;;;;;;;23.13;38.43;98794.00;4361362;32;33601;-63
2023/04/24 02:28:30;;;;;;;5.10;2.08;;;;;;;23.13;38.44;98801.34;4361339;32;33359;-63
2023/04/24 02:30:58;;;;;;;4.68;2.30;;;;;;;23.13;38.47;98796.72;4361379;32;34110;-63
2023/04/24 02:33:26;;;;;;;3.90;2.28;;;;;;;23.13;38.43;98799.47;4361333;32;33622;-63
2023/04/24 02:35:53;;;;;;;5.55;2.30;;;;;;;23.12;38.43;98786.91;4361046;32;33844;-63
2023/04/24 02:38:21;;;;;;;4.53;2.40;;;;;;;23.12;38.45;98781.47;4361530;32;33476;-63
2023/04/24 02:40:48;;;;;;;5.53;2.37;;;;;;;23.12;38.48;98788.78;4361310;32;33421;-63
2023/04/24 02:43:16;;;;;;;3.58;2.15;;;;;;;23.11;38.53;98784.44;4347749;32;33885;-62
2023/04/24 02:45:43;;;;;;;7.12;2.37;;;;;;;23.12;38.50;98788.78;4361099;32;34681;-63
2023/04/24 02:48:11;;;;;;;4.28;2.45;;;;;;;23.12;38.47;98795.06;4361625;32;32879;-63
2023/04/24 02:50:39;;;;;;;4.80;2.40;;;;;;;23.12;38.45;98784.19;4361289;32;34833;-63
2023/04/24 02:53:06;;;;;;;5.03;2.33;;;;;;;23.12;38.50;98777.91;4361105;32;34763;-63
2023/04/24 02:55:34;;;;;;;4.45;2.37;;;;;;;23.13;38.46;98772.25;4361186;32;33796;-62
2023/04/24 02:58:02;;;;;;;5.15;2.20;;;;;;;23.13;38.48;98774.16;4361208;32;33216;-63
2023/04/24 03:00:30;;;;;;;4.65;2.10;;;;;;;23.12;38.52;98777.91;4360975;32;33721;-63
2023/04/24 03:02:57;;;;;;;5.05;2.40;;;;;;;23.11;38.54;98768.94;4361037;32;34819;-62
2023/04/24 03:05:25;;;;;;;5.82;2.10;;;;;;;23.11;38.64;98765.38;4360764;32;34548;-63
2023/04/24 03:07:52;;;;;;;3.55;2.10;;;;;;;23.09;38.71;98767.56;4361048;32;33473;-63
2023/04/24 03:10:22;;;;;;;4.32;2.47;;;;;;;23.11;38.79;98766.22;4360917;32;34742;-63
2023/04/24 03:12:50;;;;;;;4.72;2.30;;;;;;;23.09;38.72;98762.09;4360799;32;33907;-63
2023/04/24 03:15:18;;;;;;;5.32;2.15;;;;;;;23.10;38.80;98769.19;4360875;32;33669;-63
2023/04/24 03:17:45;;;;;;;6.60;2.33;;;;;;;23.09;38.78;98773.00;4360789;32;33418;-63
2023/04/24 03:20:13;;;;;;;3.70;1.95;;;;;;;23.08;38.72;98766.72;4347007;32;32312;-63
2023/04/24 03:22:41;;;;;;;4.22;2.17;;;;;;;23.08;38.75;98765.87;4361686;32;34895;-63
2023/04/24 03:25:09;;;;;;;4.45;1.90;;;;;;;23.07;38.85;98756.91;4362589;32;34835;-62
2023/04/24 03:27:37;;;;;;;4.43;2.25;;;;;;;23.08;38.88;98760.44;4362778;32;34322;-62
2023/04/24 03:30:06;;;;;;;4.28;2.12;;;;;;;23.07;38.89;98765.06;4362784;32;34024;-63
2023/04/24 03:32:36;;;;;;;4.07;2.17;;;;;;;23.07;38.87;98765.06;4362611;32;33664;-63
2023/04/24 03:35:04;;;;;;;4.37;2.17;;;;;;;23.08;38.79;98761.28;4362862;32;34932;-62
2023/04/24 03:37:31;;;;;;;6.40;2.15;;;;;;;23.09;38.72;98762.09;4362832;32;34250;-62
2023/04/24 03:40:00;;;;;;;5.22;2.28;;;;;;;23.09;38.67;98753.94;4362783;32;34741;-63
2023/04/24 03:42:28;;;;;;;5.18;2.30;;;;;;;23.09;38.71;98752.03;4362727;32;35062;-62
2023/04/24 03:44:56;;;;;;;2.92;1.80;;;;;;;23.09;38.72;98748.50;4362461;32;34777;-62
2023/04/24 03:47:24;;;;;;;6.60;2.25;;;;;;;23.08;38.74;98747.69;4362647;32;33402;-62
2023/04/24 03:49:53;;;;;;;5.37;2.40;;;;;;;23.08;38.75;98739.53;4362674;32;34382;-63
2023/04/24 03:52:21;;;;;;;5.18;2.20;;;;;;;23.08;38.71;98736.78;4362371;32;34128;-63
2023/04/24 03:54:48;;;;;;;5.65;2.25;;;;;;;23.09;38.71;98735.72;4362593;32;34565;-63
2023/04/24 03:57:16;;;;;;;4.78;2.00;;;;;;;23.08;38.75;98736.78;4362399;32;34240;-62
2023/04/24 03:59:46;;;;;;;4.75;2.30;;;;;;;23.09;38.78;98738.44;4362650;32;34783;-59
2023/04/24 04:02:14;;;;;;;6.60;2.30;;;;;;;23.09;39.07;98749.31;4362247;32;34138;-62
2023/04/24 04:04:42;;;;;;;13.27;2.45;;;;;;;23.11;39.16;98751.78;4362606;32;33786;-63
2023/04/24 04:07:11;;;;;;;12.65;2.60;;;;;;;23.12;39.25;98758.87;4362510;32;33616;-64
2023/04/24 04:09:38;;;;;;;13.38;2.67;;;;;;;23.12;39.23;98762.41;4362073;32;33998;-64
2023/04/24 04:12:06;;;;;;;13.07;2.67;;;;;;;23.12;39.14;98756.97;4361737;32;34769;-62
2023/04/24 04:14:34;;;;;;;10.23;2.37;;;;;;;23.12;38.98;98743.37;4348450;32;34214;-64
2023/04/24 04:17:02;;;;;;;6.25;2.33;;;;;;;23.13;38.88;98741.50;4361622;32;33863;-64
2023/04/24 04:19:30;;;;;;;6.85;2.62;;;;;;;23.12;38.84;98746.09;4362271;32;33558;-64
2023/04/24 04:21:58;;;;;;;8.20;2.75;;;;;;;23.12;38.76;98756.16;4362375;32;34984;-64
2023/04/24 04:24:26;;;;;;;12.63;2.92;;;;;;;23.13;38.73;98760.53;4362069;32;34645;-65
2023/04/24 04:26:56;;;;;;;7.25;2.60;;;;;;;23.11;38.76;98758.03;4361275;32;33565;-66
2023/04/24 04:29:24;;;;;;;6.15;2.58;;;;;;;23.12;38.83;98767.03;4360269;32;34075;-65
2023/04/24 04:31:52;;;;;;;5.78;2.85;;;;;;;23.11;38.81;98771.66;4360342;32;33773;-65
2023/04/24 04:34:20;;;;;;;9.88;2.75;;;;;;;23.09;38.82;98759.37;4360200;32;33608;-65
2023/04/24 04:36:50;;;;;;;8.13;2.65;;;;;;;23.10;38.77;98755.59;4360482;32;33388;-65
2023/04/24 04:39:19;;;;;;;6.70;2.72;;;;;;;23.08;38.78;98742.25;4360555;32;33634;-65
2023/04/24 04:41:48;;;;;;;6.13;2.83;;;;;;;23.08;38.75;98755.00;4361068;32;33752;-65
2023/04/24 04:44:16;;;;;;;7.03;2.60;;;;;;;23.09;38.72;98754.75;4362195;32;34142;-65
2023/04/24 04:46:44;;;;;;;5.50;2.75;;;;;;;23.08;38.71;98755.84;4362105;32;34168;-64
2023/04/24 04:49:12;;;;;;;7.28;2.62;;;;;;;23.08;38.71;98755.00;4362367;32;34801;-65
2023/04/24 04:51:40;;;;;;;8.10;2.90;;;;;;;23.08;38.69;98749.56;4362248;32;33635;-64
2023/04/24 04:54:09;;;;;;;4.23;2.40;;;;;;;23.07;38.68;98747.91;4362428;32;34432;-65
2023/04/24 04:56:37;;;;;;;6.55;2.72;;;;;;;23.08;38.64;98750.41;4362466;32;33229;-67
2023/04/24 04:59:06;;;;;;;8.35;2.70;;;;;;;23.08;38.63;98749.56;4361017;32;33489;-64
2023/04/24 05:01:35;;;;;;;6.30;2.47;;;;;;;23.07;38.62;98747.91;4362447;32;33629;-64
2023/04/24 05:04:03;;;;;;;6.30;2.90;;;;;;;23.07;38.59;98747.91;4362113;32;34892;-64
2023/04/24 05:06:31;;;;;;;6.22;3.15;;;;;;;23.07;38.59;98739.75;4361750;32;33522;-64
2023/04/24 05:08:58;;;;;;;4.50;2.20;;;;;;;23.06;38.58;98747.09;4362311;32;33949;-65
2023/04/24 05:11:26;;;;;;;4.53;2.70;;;;;;;23.06;38.57;98751.72;4362238;32;33665;-64
2023/04/24 05:13:55;;;;;;;6.57;2.70;;;;;;;23.06;38.55;98743.56;4362096;32;33889;-64
2023/04/24 05:16:22;;;;;;;5.20;2.53;;;;;;;23.06;38.54;98744.37;4362225;32;33146;-65
2023/04/24 05:18:51;;;;;;;6.50;2.60;;;;;;;23.05;38.53;98745.44;4362186;32;33693;-64
2023/04/24 05:21:19;;;;;;;6.93;2.40;;;;;;;23.05;38.51;98747.34;4361931;32;34095;-64
2023/04/24 05:23:47;;;;;;;6.37;2.58;;;;;;;23.05;38.50;98737.28;4362135;32;33920;-65
2023/04/24 05:26:16;;;;;;;6.62;2.90;;;;;;;23.04;38.48;98749.25;4362212;32;33350;-64
2023/04/24 05:28:43;;;;;;;6.53;2.67;;;;;;;23.05;38.47;98745.44;4361619;32;35064;-64
2023/04/24 05:31:12;;;;;;;4.68;2.58;;;;;;;23.06;38.46;98754.44;4362051;32;33649;-65
2023/04/24 05:33:40;;;;;;;4.25;2.42;;;;;;;23.04;38.43;98746.53;4361989;32;34558;-65
2023/04/24 05:36:07;;;;;;;6.43;2.87;;;;;;;23.04;38.42;98749.25;4361825;32;33973;-63
2023/04/24 05:38:36;;;;;;;7.20;2.92;;;;;;;23.04;38.41;98754.69;4361949;32;34020;-65
2023/04/24 05:41:04;;;;;;;5.28;2.50;;;;;;;23.03;38.40;98750.31;4361968;32;34762;-65
2023/04/24 05:43:32;;;;;;;7.60;2.87;;;;;;;23.04;38.40;98753.88;4361953;32;33881;-64
2023/04/24 05:45:59;;;;;;;4.40;2.55;;;;;;;23.04;38.38;98751.16;4360943;32;33507;-65
2023/04/24 05:48:27;;;;;;;4.65;2.47;;;;;;;23.03;38.37;98749.47;4361601;32;33780;-64
2023/04/24 05:50:55;;;;;;;4.18;2.58;;;;;;;23.03;38.37;98741.31;4362097;32;33164;-64
2023/04/24 05:53:23;;;;;;;6.40;2.65;;;;;;;23.02;38.38;98748.66;4361550;32;34142;-65
2023/04/24 05:55:51;;;;;;;5.82;3.20;;;;;;;23.02;38.42;98745.94;4361768;32;33778;-64
2023/04/24 05:58:19;;;;;;;4.53;2.75;;;;;;;23.02;38.43;98756.00;4362005;32;34049;-64
2023/04/24 06:00:46;;;;;;;8.52;3.05;;;;;;;23.02;38.46;98758.72;4361794;32;33637;-64
2023/04/24 06:03:14;;;;;;;7.72;3.10;;;;;;;23.02;38.49;98759.53;4361514;32;34687;-60
2023/04/24 06:05:42;;;;;;;6.05;2.95;;;;;;;23.02;38.54;98759.53;4361893;32;34185;-63
2023/04/24 06:08:11;;;;;;;5.43;2.75;;;;;;;23.02;38.59;98756.81;4348199;32;33954;-62
2023/04/24 06:10:39;;;;;;;8.55;3.20;;;;;;;23.02;38.68;98762.25;4361682;32;34508;-64
2023/04/24 06:13:07;;;;;;;6.12;2.97;;;;;;;23.03;38.73;98768.53;4361751;32;34099;-62
2023/04/24 06:15:35;;;;;;;5.40;2.97;;;;;;;23.03;38.74;98763.09;4361887;32;33583;-62
2023/04/24 06:18:03;;;;;;;5.97;3.17;;;;;;;23.03;38.73;98763.09;4361290;32;33978;-63
2023/04/24 06:20:31;;;;;;;5.22;2.70;;;;;;;23.03;38.78;98755.75;4361685;32;34660;-63
2023/04/24 06:22:58;;;;;;;7.22;3.03;;;;;;;23.03;38.86;98752.19;4361633;32;34710;-64
2023/04/24 06:25:26;;;;;;;6.50;3.08;;;;;;;23.03;38.87;98765.81;4361648;32;32640;-62
2023/04/24 06:27:54;;;;;;;6.25;3.30;;;;;;;23.02;38.91;98754.09;4361262;32;34887;-60
2023/04/24 06:30:22;;;;;;;6.47;3.20;;;;;;;23.03;38.92;98768.53;4361337;32;34890;-61
2023/04/24 06:32:50;;;;;;;9.60;3.33;;;;;;;23.03;38.92;98763.09;4361099;32;33594;-62
2023/04/24 06:35:18;;;;;;;4.90;2.60;;;;;;;23.03;38.96;98761.19;4361296;32;33693;-58
2023/04/24 06:37:45;;;;;;;8.32;3.22;;;;;;;23.04;39.03;98759.31;4361308;32;34778;-62
2023/04/24 06:40:13;;;;;;;5.20;2.87;;;;;;;23.02;39.02;98764.97;4361242;32;33975;-64
2023/04/24 06:42:41;;;;;;;6.78;3.15;;;;;;;23.03;39.01;98752.19;4361557;32;33472;-64
2023/04/24 06:45:08;;;;;;;7.60;3.37;;;;;;;23.03;39.04;98754.91;4361532;32;33695;-65
2023/04/24 06:47:36;;;;;;;7.12;3.20;;;;;;;23.03;39.03;98749.47;4360989;32;33889;-60
2023/04/24 06:50:04;;;;;;;6.30;2.85;;;;;;;23.03;39.09;98753.03;4361120;32;34867;-62
2023/04/24 06:52:35;;;;;;;8.63;3.20;;;;;;;23.02;39.11;98753.28;4361458;32;33779;-61
2023/04/24 06:55:03;;;;;;;6.00;2.97;;;;;;;23.03;39.07;98752.19;4361119;32;33335;-62
2023/04/24 06:57:32;;;;;;;7.10;2.90;;;;;;;23.03;39.07;98750.31;4361141;32;34124;-60
2023/04/24 06:59:59;;;;;;;5.07;3.00;;;;;;;23.03;39.08;98749.47;4360950;32;34941;-61
2023/04/24 07:02:27;;;;;;;8.35;3.53;;;;;;;23.02;39.10;98751.37;4361020;32;34638;-62
2023/04/24 07:04:55;;;;;;;6.47;2.85;;;;;;;23.03;39.10;98747.56;4360998;32;33345;-62
2023/04/24 07:07:23;;;;;;;6.87;2.90;;;;;;;23.03;39.13;98747.56;4360958;32;34690;-64
2023/04/24 07:09:52;;;;;;;9.60;3.45;;;;;;;23.03;39.14;98753.03;4361016;32;33804;-64
2023/04/24 07:12:21;;;;;;;5.00;2.97;;;;;;;23.03;39.13;98744.03;4360981;32;33650;-63
2023/04/24 07:14:50;;;;;;;6.70;3.40;;;;;;;23.02;39.14;98756.81;4347607;32;33573;-64
2023/04/24 07:17:17;;;;;;;6.87;2.95;;;;;;;23.03;39.12;98744.84;4360921;32;34490;-62
2023/04/24 07:19:45;;;;;;;10.90;3.65;;;;;;;23.03;39.10;98742.13;4360717;32;33758;-61
2023/04/24 07:22:16;;;;;;;6.15;3.80;;;;;;;23.02;39.11;98745.94;4360637;32;34734;-63
2023/04/24 07:24:44;;;;;;;7.55;3.60;;;;;;;23.02;39.11;98739.69;4360794;32;34372;-60
2023/04/24 07:27:12;;;;;;;6.15;3.35;;;;;;;23.02;39.11;98726.91;4360646;32;34067;-63
2023/04/24 07:29:39;;;;;;;6.15;3.00;;;;;;;23.03;39.10;98733.16;4360497;32;33866;-61
2023/04/24 07:32:08;;;;;;;7.03;3.35;;;;;;;23.02;39.08;98726.91;4360623;32;34387;-64
2023/04/24 07:34:36;;;;;;;6.95;3.40;;;;;;;23.02;39.08;98729.63;4360818;32;33872;-63
2023/04/24 07:37:03;;;;;;;8.27;3.33;;;;;;;23.02;39.08;98737.78;4360625;32;33972;-62
2023/04/24 07:39:31;;;;;;;7.87;3.40;;;;;;;23.02;39.03;98743.22;4347184;32;34037;-62
2023/04/24 07:41:59;;;;;;;7.65;3.37;;;;;;;23.02;39.02;98745.94;4360773;32;33882;-61
2023/04/24 07:44:26;;;;;;;6.22;3.17;;;;;;;23.02;39.04;98751.37;4360496;32;33724;-64
2023/04/24 07:46:54;;;;;;;8.60;3.10;;;;;;;23.03;39.06;98753.03;4356913;32;33827;-61
2023/04/24 07:49:21;;;;;;;6.75;3.25;;;;;;;23.03;39.07;98747.56;4357248;32;34026;-61
2023/04/24 07:51:49;;;;;;;6.32;3.40;;;;;;;23.03;39.01;98747.56;4375414;32;35267;-63
2023/04/24 07:54:17;;;;;;;9.07;3.47;;;;;;;23.04;39.02;98751.97;4364632;32;33666;-65
2023/04/24 07:56:44;;;;;;;9.80;3.12;;;;;;;23.04;39.01;98751.97;4346282;32;33762;-64
2023/04/24 07:59:12;;;;;;;7.80;3.70;;;;;;;23.04;39.16;98757.41;4345308;33;34172;-65
2023/04/24 08:01:39;;;;;;;8.88;3.62;;;;;;;23.04;39.24;98749.25;4345383;33;33899;-64
2023/04/24 08:04:07;;;;;;;6.47;3.60;;;;;;;23.05;39.22;98752.78;4348096;32;33523;-61
2023/04/24 08:06:35;;;;;;;7.10;3.78;;;;;;;23.06;39.22;98749.81;4371306;32;34001;-64
2023/04/24 08:09:02;;;;;;;8.88;3.50;;;;;;;23.06;39.31;98746.28;4351382;32;34771;-63
2023/04/24 08:11:30;;;;;;;9.07;3.33;;;;;;;23.06;39.30;98746.28;4362126;32;33368;-64
2023/04/24 08:13:58;;;;;;;7.43;3.67;;;;;;;23.06;39.23;98736.22;4362266;32;33482;-64
2023/04/24 08:16:25;;;;;;;8.82;3.70;;;;;;;23.06;39.18;98732.66;4362380;32;33973;-63
2023/04/24 08:18:53;;;;;;;8.52;3.08;;;;;;;23.07;39.21;98737.84;4336712;32;34062;-62
2023/04/24 08:21:21;;;;;;;13.02;3.80;;;;;;;23.06;39.16;98735.37;4361748;32;34870;-58
2023/04/24 08:23:48;;;;;;;8.48;3.72;;;;;;;23.06;39.10;98738.09;4362362;32;34088;-64
2023/04/24 08:26:16;;;;;;;6.68;3.28;;;;;;;23.06;39.09;98744.37;4362292;32;33601;-61
2023/04/24 08:28:43;;;;;;;11.10;3.10;;;;;;;23.05;39.08;98734.56;4348062;32;33768;-64
2023/04/24 08:31:11;;;;;;;7.12;3.53;;;;;;;23.06;39.06;98730.75;4362254;32;33437;-63
2023/04/24 08:33:40;;;;;;;11.70;3.95;;;;;;;23.07;39.05;98737.03;4362135;32;34318;-63
2023/04/24 08:36:08;;;;;;;5.43;3.40;;;;;;;23.07;39.04;98734.31;4361429;32;34148;-62
2023/04/24 08:38:35;;;;;;;6.20;3.10;;;;;;;23.07;39.09;98737.84;4362109;32;34959;-62
2023/04/24 08:41:04;;;;;;;7.95;3.28;;;;;;;23.06;39.12;98738.94;4362091;32;34357;-61
2023/04/24 08:43:31;;;;;;;7.43;3.60;;;;;;;23.07;39.12;98743.28;4362707;32;34300;-62
2023/04/24 08:45:59;;;;;;;6.07;3.45;;;;;;;23.06;39.33;98732.66;4357263;32;33997;-62
2023/04/24 08:48:27;;;;;;;6.47;3.28;;;;;;;23.06;39.42;98738.09;4347141;33;35015;-63
2023/04/24 08:50:58;;;;;;;8.65;3.30;;;;;;;23.05;39.34;98745.44;4322670;33;33563;-64
2023/04/24 08:53:26;;;;;;;9.18;3.87;;;;;;;23.05;39.36;98731.84;4358187;32;33045;-64
2023/04/24 08:55:55;;;;;;;8.90;3.22;;;;;;;23.07;39.37;98735.13;4361920;32;34562;-63
2023/04/24 08:58:25;;;;;;;8.48;3.53;;;;;;;23.07;39.53;98734.31;4362014;32;34780;-64
2023/04/24 09:00:56;;;;;;;7.95;3.60;;;;;;;23.08;39.64;98739.53;4360839;32;33778;-63
2023/04/24 09:03:24;;;;;;;8.35;3.60;;;;;;;23.07;39.70;98732.41;4361848;32;34149;-64
2023/04/24 09:05:52;;;;;;;8.57;4.22;;;;;;;23.08;39.77;98730.50;4362042;32;33719;-63
2023/04/24 09:08:20;;;;;;;8.98;3.95;;;;;;;23.08;39.79;98731.34;4360746;32;34086;-61
2023/04/24 09:10:48;;;;;;;7.85;3.58;;;;;;;23.08;39.80;98730.50;4336201;32;33446;-64
2023/04/24 09:13:19;;;;;;;7.32;3.85;;;;;;;23.09;39.85;98724.84;4362059;32;33464;-65
2023/04/24 09:15:47;;;;;;;7.82;3.80;;;;;;;23.09;39.82;98721.28;4361846;32;34658;-63
2023/04/24 09:18:14;;;;;;;7.85;3.50;;;;;;;23.09;39.81;98722.13;4362196;32;34978;-64
2023/04/24 09:21:17;;;;;;;8.13;4.07;;;;;;;23.09;39.82;98722.13;4361000;32;34001;-64
2023/04/24 09:23:45;;;;;;;9.50;3.90;;;;;;;23.13;39.75;98719.72;4303361;33;34031;-64
2023/04/24 09:26:14;;;;;;;8.23;3.70;;;;;;;23.10;39.84;98725.66;4349252;32;34754;-62
2023/04/24 09:28:41;;;;;;;10.32;3.80;;;;;;;23.10;39.86;98723.75;4360504;32;34762;-64
2023/04/24 09:31:15;;;;;;;7.60;3.97;;;;;;;23.11;39.88;98719.13;4361871;32;33788;-65
2023/04/24 09:34:09;;;;;;;6.87;3.60;;;;;;;23.09;39.92;98719.41;4371963;32;32940;-64
2023/04/24 09:36:47;;;;;;;11.68;3.95;;;;;;;23.13;39.83;98717.81;4373619;32;34107;-64
2023/04/24 09:39:16;;;;;;;8.45;3.85;;;;;;;23.12;39.93;98712.59;4376811;32;34079;-64
2023/04/24 09:41:54;;;;;;;8.35;4.35;;;;;;;23.12;39.92;98707.16;4373698;32;34525;-64
2023/04/24 09:44:23;;;;;;;7.95;4.00;;;;;;;23.12;39.92;98709.88;4361664;32;34414;-64
2023/04/24 09:46:53;;;;;;;6.18;4.00;;;;;;;23.12;39.93;98709.88;4348468;32;33703;-64
2023/04/24 09:49:33;;;;;;;8.95;3.97;;;;;;;23.10;39.90;98703.88;4361918;32;33707;-64
2023/04/24 09:52:07;;;;;;;8.13;4.00;;;;;;;23.12;39.87;98699.00;4361689;32;34700;-64
2023/04/24 09:54:36;;;;;;;7.62;4.47;;;;;;;23.11;39.89;98697.37;4361769;32;34220;-64
2023/04/24 09:57:04;;;;;;;8.10;3.27;;;;;;;23.11;39.86;98700.91;4361561;32;33931;-64
2023/04/24 09:59:31;;;;;;;9.25;3.72;;;;;;;23.11;39.87;98695.47;4361752;32;34101;-64
2023/04/24 10:02:01;;;;;;;7.97;3.90;;;;;;;23.11;39.84;98698.19;4361809;32;34575;-64
2023/04/24 10:04:28;;;;;;;8.75;4.47;;;;;;;23.12;39.79;98702.53;4361681;32;33249;-64
2023/04/24 10:06:56;;;;;;;10.05;3.70;;;;;;;23.12;39.80;98702.53;4361661;32;33740;-64
2023/04/24 10:09:25;;;;;;;6.35;4.05;;;;;;;23.12;39.80;98705.28;4361773;32;34095;-64
2023/04/24 10:11:54;;;;;;;6.75;3.65;;;;;;;23.12;39.80;98707.16;4361565;32;34018;-64
2023/04/24 10:14:23;;;;;;;6.35;3.80;;;;;;;23.12;39.78;98702.53;4361759;32;33603;-64
2023/04/24 10:16:53;;;;;;;6.95;3.70;;;;;;;23.12;39.77;98701.72;4361517;32;33602;-63
2023/04/24 10:19:20;;;;;;;;;;;;;;;23.11;39.79;98705.53;4361914;32;34016;-63
2023/04/24 10:21:48;;;;;;;6.93;3.80;;;;;;;23.21;39.61;98699.41;4361764;32;34105;-64
2023/04/24 10:24:16;;;;;;;8.15;4.15;;;;;;;23.13;39.72;98706.94;4347820;32;34205;-60
2023/04/24 10:26:45;;;;;;;8.38;4.07;;;;;;;23.11;39.85;98692.75;4361589;32;34191;-59
2023/04/24 10:29:13;;;;;;;8.40;3.83;;;;;;;23.12;39.89;98701.72;4361295;32;34036;-64
2023/04/24 10:31:41;;;;;;;11.63;4.60;;;;;;;23.13;39.96;98696.06;4361115;32;33836;-59
2023/04/24 10:34:09;;;;;;;9.27;3.50;;;;;;;23.12;40.07;98690.84;4361380;32;33292;-63
2023/04/24 10:36:40;;;;;;;7.80;4.18;;;;;;;23.14;40.17;98691.44;4347884;32;34742;-60
2023/04/24 10:39:09;;;;;;;7.50;4.70;;;;;;;23.13;40.32;98696.06;4347796;32;34711;-61
2023/04/24 10:41:39;;;;;;;6.70;4.15;;;;;;;23.14;40.40;98691.44;4347880;32;33946;-63
2023/04/24 10:44:08;;;;;;;8.82;4.43;;;;;;;23.14;40.58;98699.59;4361563;32;33228;-63
2023/04/24 10:46:36;;;;;;;7.62;4.32;;;;;;;23.14;40.63;98689.53;4361231;32;33789;-62
2023/04/24 10:49:06;;;;;;;9.13;4.57;;;;;;;23.15;40.75;98688.44;4361118;32;34213;-60
2023/04/24 10:51:53;;;;;;;12.18;5.30;;;;;;;23.16;40.77;98694.72;4361015;32;34015;-60
2023/04/24 10:54:28;;;;;;;9.25;4.97;;;;;;;23.19;40.75;98687.97;4361245;32;34299;-62
2023/04/24 10:57:22;;;;;;;8.48;4.45;;;;;;;23.16;40.82;98679.22;4361025;32;33746;-61
2023/04/24 11:00:13;;;;;;;7.90;4.28;;;;;;;23.18;40.76;98678.97;4353799;32;34955;-63
2023/04/24 11:02:47;;;;;;;8.90;4.80;;;;;;;23.18;40.74;98676.25;4359751;32;33631;-62
2023/04/24 11:05:17;;;;;;;7.87;4.53;;;;;;;23.15;40.73;98668.59;4348452;32;33400;-62
2023/04/24 11:08:13;;;;;;;7.82;4.85;;;;;;;23.15;40.69;98672.13;4360950;32;34721;-60
2023/04/24 11:10:54;;;;;;;10.70;4.40;;;;;;;23.15;40.60;98668.59;4360875;32;33680;-60
2023/04/24 11:13:22;;;;;;;11.30;4.32;;;;;;;23.14;40.48;98666.94;4361076;32;33966;-60
2023/04/24 11:16:12;;;;;;;9.73;4.82;;;;;;;23.14;40.43;98669.66;4360737;32;34352;-61
2023/04/24 11:18:45;;;;;;;7.12;4.55;;;;;;;23.17;40.35;98669.13;4360214;32;34481;-60
2023/04/24 11:21:13;;;;;;;12.23;4.90;;;;;;;23.14;40.29;98666.94;4360636;32;34003;-60
2023/04/24 11:23:41;;;;;;;9.38;5.25;;;;;;;23.13;40.21;98666.13;4361040;32;33837;-61
2023/04/24 11:26:19;;;;;;;7.50;4.62;;;;;;;23.12;40.12;98667.16;4360866;32;33506;-61
2023/04/24 11:28:50;;;;;;;7.20;4.10;;;;;;;23.14;40.02;98662.31;4360705;32;33858;-61
2023/04/24 11:31:37;;;;;;;8.65;3.95;;;;;;;23.13;39.94;98660.69;4360625;32;34108;-61
2023/04/24 11:34:07;;;;;;;8.77;4.50;;;;;;;23.16;39.88;98662.06;4360675;32;33532;-60
2023/04/24 11:36:35;;;;;;;6.78;4.25;;;;;;;23.12;39.83;98659.00;4359797;32;33651;-60
2023/04/24 11:39:03;;;;;;;10.57;4.62;;;;;;;23.13;39.78;98660.69;4360423;32;34791;-61
2023/04/24 11:41:31;;;;;;;9.82;4.22;;;;;;;23.13;39.78;98655.25;4360471;32;34944;-60